Kezdőlap
METAR-TAF:

METAR-TAF

Repülőterek :

Samsun, Törökország

földrajzi szélesség: 41-15-15N, földrajzi hosszúság: 036-34-03E, magasság: 5 m

Jelenlegi meteorológiai megfigyelések

A jelentés 20 perccel ezelõtt készült, 23:50 UTC
Kelet-délkeleti szél 3 kt
Hőmérséklet 11°C
Páratartalom 94%
Légköri nyomás 1014 hPa
Látótávolság: 3200 m
Szórványos felhőzet 800 lábon
Párásság

METAR: LTFH 242350Z 11003KT 3200 BR SCT008 11/10 Q1014 NOSIG

Idő: 03:10 (00:10 UTC)

Előrejelzés

A jelentés 1 órával és 30 perccel ezelõtt készült, 22:40 UTC
Az előrejelzés 25-én 00 óra UTC és 25-én 09 óra UTC között érvényes
Különbözõ irányokból fújó szél 2 kt
Látótávolság: 3200 m
Szórványos felhőzet 800 lábon
Párásság
25-én 00 óra UTC és 25-én 01 óra UTC között fokozatosan kialakuló
Látótávolság: 6000 m

TAF: LTFH 242240Z 2500/2509 VRB02KT 3200 BR SCT008 BECMG 2500/2501 6000

Meteorológiai megfigyelések és előrejelzések több, mint 4000 repülőtéren (METAR és TAF jelentéseket).

A térképen piros és sárga pontok jelzik az elérhető meteorológiai állomásokat.

Mozgassa az egeret a pont fölött, hogy megjelenjen az állomás neve.

Azután kattintson az időjárási megfigyelések és előrejelzések megtekintéséhez.

A térkép megváltoztatása: kattintson a fekete keresztel jelölt zöld gombra ráközelítéshez, a vonallal jelölt zöld gombra távolításhoz, vagy a zöld nyilakra a szomszédos térképek eléréséhez.


METAR-TAF: